sensor_id;sensor_type;location;lat;lon;timestamp;P1;durP1;ratioP1;P2;durP2;ratioP2
15833;SDS011;8017;50.812;4.934;2023-03-01T00:01:52;9.90;;;7.73;;
15833;SDS011;8017;50.812;4.934;2023-03-01T00:04:53;9.10;;;7.47;;
15833;SDS011;8017;50.812;4.934;2023-03-01T00:07:55;10.27;;;7.67;;
15833;SDS011;8017;50.812;4.934;2023-03-01T00:11:01;9.77;;;8.37;;
15833;SDS011;8017;50.812;4.934;2023-03-01T00:14:06;10.67;;;8.17;;
15833;SDS011;8017;50.812;4.934;2023-03-01T00:17:08;12.60;;;8.37;;
15833;SDS011;8017;50.812;4.934;2023-03-01T00:20:10;11.97;;;8.33;;
15833;SDS011;8017;50.812;4.934;2023-03-01T00:23:12;10.17;;;8.77;;
15833;SDS011;8017;50.812;4.934;2023-03-01T00:26:15;11.10;;;8.40;;
15833;SDS011;8017;50.812;4.934;2023-03-01T00:29:20;12.37;;;9.00;;
15833;SDS011;8017;50.812;4.934;2023-03-01T00:32:22;10.50;;;8.37;;
15833;SDS011;8017;50.812;4.934;2023-03-01T00:35:23;9.97;;;8.13;;
15833;SDS011;8017;50.812;4.934;2023-03-01T00:38:25;11.03;;;8.67;;
15833;SDS011;8017;50.812;4.934;2023-03-01T00:41:27;12.43;;;8.47;;
15833;SDS011;8017;50.812;4.934;2023-03-01T00:44:31;11.50;;;8.00;;
15833;SDS011;8017;50.812;4.934;2023-03-01T00:47:34;13.40;;;8.90;;
15833;SDS011;8017;50.812;4.934;2023-03-01T00:50:36;11.50;;;9.27;;
15833;SDS011;8017;50.812;4.934;2023-03-01T00:53:38;9.13;;;8.00;;
15833;SDS011;8017;50.812;4.934;2023-03-01T00:56:40;10.70;;;8.70;;
15833;SDS011;8017;50.812;4.934;2023-03-01T00:59:43;13.10;;;9.43;;
15833;SDS011;8017;50.812;4.934;2023-03-01T01:02:45;9.83;;;8.53;;
15833;SDS011;8017;50.812;4.934;2023-03-01T01:05:47;10.67;;;8.27;;
15833;SDS011;8017;50.812;4.934;2023-03-01T01:08:49;11.10;;;8.27;;
15833;SDS011;8017;50.812;4.934;2023-03-01T01:11:52;10.43;;;8.60;;
15833;SDS011;8017;50.812;4.934;2023-03-01T01:14:55;11.97;;;9.20;;
15833;SDS011;8017;50.812;4.934;2023-03-01T01:17:58;11.93;;;9.03;;
15833;SDS011;8017;50.812;4.934;2023-03-01T01:21:03;11.53;;;9.00;;
15833;SDS011;8017;50.812;4.934;2023-03-01T01:24:06;11.83;;;8.43;;
15833;SDS011;8017;50.812;4.934;2023-03-01T01:27:08;16.47;;;8.27;;
15833;SDS011;8017;50.812;4.934;2023-03-01T01:30:12;13.30;;;8.73;;
15833;SDS011;8017;50.812;4.934;2023-03-01T01:33:14;9.10;;;8.13;;
15833;SDS011;8017;50.812;4.934;2023-03-01T01:36:16;10.13;;;8.53;;
15833;SDS011;8017;50.812;4.934;2023-03-01T01:39:18;13.10;;;8.17;;
15833;SDS011;8017;50.812;4.934;2023-03-01T01:42:20;9.53;;;8.47;;
15833;SDS011;8017;50.812;4.934;2023-03-01T01:45:28;11.43;;;8.40;;
15833;SDS011;8017;50.812;4.934;2023-03-01T01:48:34;10.53;;;9.20;;
15833;SDS011;8017;50.812;4.934;2023-03-01T01:51:42;10.33;;;8.27;;
15833;SDS011;8017;50.812;4.934;2023-03-01T01:54:48;10.10;;;8.17;;
15833;SDS011;8017;50.812;4.934;2023-03-01T01:57:53;15.97;;;8.90;;
15833;SDS011;8017;50.812;4.934;2023-03-01T02:00:58;11.33;;;8.97;;
15833;SDS011;8017;50.812;4.934;2023-03-01T02:04:01;9.43;;;7.97;;
15833;SDS011;8017;50.812;4.934;2023-03-01T02:07:05;11.83;;;9.13;;
15833;SDS011;8017;50.812;4.934;2023-03-01T02:10:12;10.23;;;8.70;;
15833;SDS011;8017;50.812;4.934;2023-03-01T02:13:15;12.43;;;9.67;;
15833;SDS011;8017;50.812;4.934;2023-03-01T02:16:18;11.10;;;8.60;;
15833;SDS011;8017;50.812;4.934;2023-03-01T02:19:25;12.97;;;9.40;;
15833;SDS011;8017;50.812;4.934;2023-03-01T02:22:35;13.00;;;9.40;;
15833;SDS011;8017;50.812;4.934;2023-03-01T02:25:43;10.37;;;9.20;;
15833;SDS011;8017;50.812;4.934;2023-03-01T02:28:49;11.03;;;8.57;;
15833;SDS011;8017;50.812;4.934;2023-03-01T02:31:52;10.90;;;9.30;;
15833;SDS011;8017;50.812;4.934;2023-03-01T02:34:58;12.00;;;9.03;;
15833;SDS011;8017;50.812;4.934;2023-03-01T02:38:00;12.50;;;10.30;;
15833;SDS011;8017;50.812;4.934;2023-03-01T02:41:03;10.97;;;9.83;;
15833;SDS011;8017;50.812;4.934;2023-03-01T02:44:08;16.83;;;10.43;;
15833;SDS011;8017;50.812;4.934;2023-03-01T02:47:10;12.87;;;10.07;;
15833;SDS011;8017;50.812;4.934;2023-03-01T02:50:14;12.60;;;10.00;;
15833;SDS011;8017;50.812;4.934;2023-03-01T02:53:27;12.47;;;9.90;;
15833;SDS011;8017;50.812;4.934;2023-03-01T02:56:40;13.03;;;9.53;;
15833;SDS011;8017;50.812;4.934;2023-03-01T02:59:45;11.37;;;9.43;;
15833;SDS011;8017;50.812;4.934;2023-03-01T03:02:47;11.97;;;9.60;;
15833;SDS011;8017;50.812;4.934;2023-03-01T03:05:51;12.33;;;10.37;;
15833;SDS011;8017;50.812;4.934;2023-03-01T03:08:52;15.80;;;10.90;;
15833;SDS011;8017;50.812;4.934;2023-03-01T03:11:54;15.20;;;10.67;;
15833;SDS011;8017;50.812;4.934;2023-03-01T03:14:58;12.13;;;10.77;;
15833;SDS011;8017;50.812;4.934;2023-03-01T03:17:59;11.87;;;9.53;;
15833;SDS011;8017;50.812;4.934;2023-03-01T03:21:01;12.33;;;10.23;;
15833;SDS011;8017;50.812;4.934;2023-03-01T03:24:04;15.17;;;10.37;;
15833;SDS011;8017;50.812;4.934;2023-03-01T03:27:06;15.17;;;10.97;;
15833;SDS011;8017;50.812;4.934;2023-03-01T03:30:12;12.13;;;10.53;;
15833;SDS011;8017;50.812;4.934;2023-03-01T03:33:16;12.00;;;10.33;;
15833;SDS011;8017;50.812;4.934;2023-03-01T03:36:18;13.23;;;10.23;;
15833;SDS011;8017;50.812;4.934;2023-03-01T03:39:22;12.90;;;10.43;;
15833;SDS011;8017;50.812;4.934;2023-03-01T03:42:23;14.90;;;11.03;;
15833;SDS011;8017;50.812;4.934;2023-03-01T03:45:27;12.37;;;10.30;;
15833;SDS011;8017;50.812;4.934;2023-03-01T03:48:29;16.33;;;10.70;;
15833;SDS011;8017;50.812;4.934;2023-03-01T03:51:30;18.03;;;10.90;;
15833;SDS011;8017;50.812;4.934;2023-03-01T03:54:32;13.83;;;10.37;;
15833;SDS011;8017;50.812;4.934;2023-03-01T03:57:34;14.60;;;10.87;;
15833;SDS011;8017;50.812;4.934;2023-03-01T04:00:38;14.13;;;11.20;;
15833;SDS011;8017;50.812;4.934;2023-03-01T04:03:41;11.77;;;10.53;;
15833;SDS011;8017;50.812;4.934;2023-03-01T04:06:46;13.47;;;10.90;;
15833;SDS011;8017;50.812;4.934;2023-03-01T04:09:49;12.30;;;10.43;;
15833;SDS011;8017;50.812;4.934;2023-03-01T04:12:51;12.87;;;10.23;;
15833;SDS011;8017;50.812;4.934;2023-03-01T04:15:57;14.70;;;10.83;;
15833;SDS011;8017;50.812;4.934;2023-03-01T04:18:59;16.00;;;11.80;;
15833;SDS011;8017;50.812;4.934;2023-03-01T04:22:01;14.10;;;11.60;;
15833;SDS011;8017;50.812;4.934;2023-03-01T04:25:07;30.13;;;11.60;;
15833;SDS011;8017;50.812;4.934;2023-03-01T04:28:14;16.90;;;11.63;;
15833;SDS011;8017;50.812;4.934;2023-03-01T04:31:18;12.43;;;11.10;;
15833;SDS011;8017;50.812;4.934;2023-03-01T04:34:21;13.43;;;11.50;;
15833;SDS011;8017;50.812;4.934;2023-03-01T04:37:23;15.83;;;11.37;;
15833;SDS011;8017;50.812;4.934;2023-03-01T04:40:25;15.37;;;10.20;;
15833;SDS011;8017;50.812;4.934;2023-03-01T04:43:27;17.67;;;12.23;;
15833;SDS011;8017;50.812;4.934;2023-03-01T04:46:30;16.87;;;12.67;;
15833;SDS011;8017;50.812;4.934;2023-03-01T04:49:32;14.23;;;12.13;;
15833;SDS011;8017;50.812;4.934;2023-03-01T04:52:34;14.80;;;12.37;;
15833;SDS011;8017;50.812;4.934;2023-03-01T04:55:36;13.57;;;11.77;;
15833;SDS011;8017;50.812;4.934;2023-03-01T04:58:38;18.10;;;12.23;;
15833;SDS011;8017;50.812;4.934;2023-03-01T05:01:41;14.23;;;11.50;;
15833;SDS011;8017;50.812;4.934;2023-03-01T05:04:43;15.97;;;11.67;;
15833;SDS011;8017;50.812;4.934;2023-03-01T05:07:45;15.07;;;12.73;;
15833;SDS011;8017;50.812;4.934;2023-03-01T05:10:48;18.00;;;12.73;;
15833;SDS011;8017;50.812;4.934;2023-03-01T05:13:51;14.77;;;11.87;;
15833;SDS011;8017;50.812;4.934;2023-03-01T05:16:56;18.77;;;12.90;;
15833;SDS011;8017;50.812;4.934;2023-03-01T05:20:04;21.07;;;12.03;;
15833;SDS011;8017;50.812;4.934;2023-03-01T05:23:08;17.47;;;12.70;;
15833;SDS011;8017;50.812;4.934;2023-03-01T05:26:10;15.43;;;12.83;;
15833;SDS011;8017;50.812;4.934;2023-03-01T05:29:13;19.57;;;12.60;;
15833;SDS011;8017;50.812;4.934;2023-03-01T05:32:16;19.90;;;14.13;;
15833;SDS011;8017;50.812;4.934;2023-03-01T05:35:18;19.50;;;13.70;;
15833;SDS011;8017;50.812;4.934;2023-03-01T05:38:20;16.13;;;12.10;;
15833;SDS011;8017;50.812;4.934;2023-03-01T05:41:22;15.67;;;12.27;;
15833;SDS011;8017;50.812;4.934;2023-03-01T05:44:24;16.43;;;13.17;;
15833;SDS011;8017;50.812;4.934;2023-03-01T05:47:28;16.97;;;12.87;;
15833;SDS011;8017;50.812;4.934;2023-03-01T05:50:32;18.97;;;12.73;;
15833;SDS011;8017;50.812;4.934;2023-03-01T05:53:35;18.23;;;13.40;;
15833;SDS011;8017;50.812;4.934;2023-03-01T05:56:37;17.97;;;13.83;;
15833;SDS011;8017;50.812;4.934;2023-03-01T05:59:39;16.63;;;13.40;;
15833;SDS011;8017;50.812;4.934;2023-03-01T06:02:43;17.27;;;13.17;;
15833;SDS011;8017;50.812;4.934;2023-03-01T06:05:45;19.13;;;13.10;;
15833;SDS011;8017;50.812;4.934;2023-03-01T06:08:47;19.83;;;14.00;;
15833;SDS011;8017;50.812;4.934;2023-03-01T06:11:49;22.20;;;13.60;;
15833;SDS011;8017;50.812;4.934;2023-03-01T06:14:50;16.43;;;12.57;;
15833;SDS011;8017;50.812;4.934;2023-03-01T06:17:54;17.50;;;12.13;;
15833;SDS011;8017;50.812;4.934;2023-03-01T06:20:57;14.27;;;12.50;;
15833;SDS011;8017;50.812;4.934;2023-03-01T06:23:59;16.10;;;12.53;;
15833;SDS011;8017;50.812;4.934;2023-03-01T06:27:01;17.33;;;12.77;;
15833;SDS011;8017;50.812;4.934;2023-03-01T06:30:03;23.13;;;13.47;;
15833;SDS011;8017;50.812;4.934;2023-03-01T06:33:08;20.13;;;13.23;;
15833;SDS011;8017;50.812;4.934;2023-03-01T06:36:10;17.20;;;13.33;;
15833;SDS011;8017;50.812;4.934;2023-03-01T06:39:12;16.53;;;13.83;;
15833;SDS011;8017;50.812;4.934;2023-03-01T06:42:14;19.93;;;12.73;;
15833;SDS011;8017;50.812;4.934;2023-03-01T06:45:17;15.00;;;13.03;;
15833;SDS011;8017;50.812;4.934;2023-03-01T06:48:20;22.53;;;13.23;;
15833;SDS011;8017;50.812;4.934;2023-03-01T06:51:22;16.37;;;13.00;;
15833;SDS011;8017;50.812;4.934;2023-03-01T06:54:25;17.87;;;12.93;;
15833;SDS011;8017;50.812;4.934;2023-03-01T06:57:27;16.93;;;12.63;;
15833;SDS011;8017;50.812;4.934;2023-03-01T07:00:29;19.43;;;13.40;;
15833;SDS011;8017;50.812;4.934;2023-03-01T07:03:33;18.10;;;14.27;;
15833;SDS011;8017;50.812;4.934;2023-03-01T07:06:35;16.80;;;12.60;;
15833;SDS011;8017;50.812;4.934;2023-03-01T07:09:37;15.37;;;12.17;;
15833;SDS011;8017;50.812;4.934;2023-03-01T07:12:39;19.23;;;13.77;;
15833;SDS011;8017;50.812;4.934;2023-03-01T07:15:42;22.00;;;13.73;;
15833;SDS011;8017;50.812;4.934;2023-03-01T07:18:45;18.60;;;13.17;;
15833;SDS011;8017;50.812;4.934;2023-03-01T07:21:47;18.33;;;12.80;;
15833;SDS011;8017;50.812;4.934;2023-03-01T07:24:49;17.43;;;13.07;;
15833;SDS011;8017;50.812;4.934;2023-03-01T07:27:51;16.20;;;11.63;;
15833;SDS011;8017;50.812;4.934;2023-03-01T07:30:54;18.10;;;12.57;;
15833;SDS011;8017;50.812;4.934;2023-03-01T07:33:57;14.97;;;12.73;;
15833;SDS011;8017;50.812;4.934;2023-03-01T07:36:59;17.70;;;12.13;;
15833;SDS011;8017;50.812;4.934;2023-03-01T07:40:01;17.87;;;12.27;;
15833;SDS011;8017;50.812;4.934;2023-03-01T07:43:04;17.53;;;12.57;;
15833;SDS011;8017;50.812;4.934;2023-03-01T07:46:06;16.77;;;12.73;;
15833;SDS011;8017;50.812;4.934;2023-03-01T07:49:09;16.03;;;12.53;;
15833;SDS011;8017;50.812;4.934;2023-03-01T07:52:11;15.97;;;12.73;;
15833;SDS011;8017;50.812;4.934;2023-03-01T07:55:13;16.03;;;12.70;;
15833;SDS011;8017;50.812;4.934;2023-03-01T07:58:16;16.50;;;12.17;;
15833;SDS011;8017;50.812;4.934;2023-03-01T08:01:19;18.60;;;13.77;;
15833;SDS011;8017;50.812;4.934;2023-03-01T08:04:25;18.03;;;12.93;;
15833;SDS011;8017;50.812;4.934;2023-03-01T08:07:27;16.17;;;12.40;;
15833;SDS011;8017;50.812;4.934;2023-03-01T08:10:29;16.10;;;12.47;;
15833;SDS011;8017;50.812;4.934;2023-03-01T08:13:31;19.53;;;12.80;;
15833;SDS011;8017;50.812;4.934;2023-03-01T08:16:33;18.70;;;13.53;;
15833;SDS011;8017;50.812;4.934;2023-03-01T08:19:36;15.87;;;12.97;;
15833;SDS011;8017;50.812;4.934;2023-03-01T08:22:38;15.97;;;12.70;;
15833;SDS011;8017;50.812;4.934;2023-03-01T08:25:40;17.30;;;12.73;;
15833;SDS011;8017;50.812;4.934;2023-03-01T08:28:42;18.33;;;13.23;;
15833;SDS011;8017;50.812;4.934;2023-03-01T08:31:44;21.80;;;13.63;;
15833;SDS011;8017;50.812;4.934;2023-03-01T08:34:47;17.63;;;12.40;;
15833;SDS011;8017;50.812;4.934;2023-03-01T08:37:49;21.10;;;13.87;;
15833;SDS011;8017;50.812;4.934;2023-03-01T08:40:51;17.03;;;13.23;;
15833;SDS011;8017;50.812;4.934;2023-03-01T08:43:53;15.53;;;13.10;;
15833;SDS011;8017;50.812;4.934;2023-03-01T08:46:58;16.57;;;13.03;;
15833;SDS011;8017;50.812;4.934;2023-03-01T08:50:04;17.60;;;13.47;;
15833;SDS011;8017;50.812;4.934;2023-03-01T08:53:06;16.03;;;12.63;;
15833;SDS011;8017;50.812;4.934;2023-03-01T08:56:08;16.23;;;13.07;;
15833;SDS011;8017;50.812;4.934;2023-03-01T08:59:11;20.33;;;13.50;;
15833;SDS011;8017;50.812;4.934;2023-03-01T09:02:14;20.80;;;13.33;;
15833;SDS011;8017;50.812;4.934;2023-03-01T09:05:19;24.23;;;14.20;;
15833;SDS011;8017;50.812;4.934;2023-03-01T09:08:21;19.03;;;13.37;;
15833;SDS011;8017;50.812;4.934;2023-03-01T09:11:23;17.30;;;13.57;;
15833;SDS011;8017;50.812;4.934;2023-03-01T09:14:24;17.33;;;13.50;;
15833;SDS011;8017;50.812;4.934;2023-03-01T09:17:26;19.13;;;13.73;;
15833;SDS011;8017;50.812;4.934;2023-03-01T09:20:31;16.90;;;13.27;;
15833;SDS011;8017;50.812;4.934;2023-03-01T09:23:33;16.77;;;13.20;;
15833;SDS011;8017;50.812;4.934;2023-03-01T09:26:36;21.33;;;13.03;;
15833;SDS011;8017;50.812;4.934;2023-03-01T09:29:38;17.43;;;12.47;;
15833;SDS011;8017;50.812;4.934;2023-03-01T09:32:44;18.27;;;13.63;;
15833;SDS011;8017;50.812;4.934;2023-03-01T09:35:56;16.20;;;12.90;;
15833;SDS011;8017;50.812;4.934;2023-03-01T09:38:58;16.50;;;13.50;;
15833;SDS011;8017;50.812;4.934;2023-03-01T09:42:01;15.93;;;12.83;;
15833;SDS011;8017;50.812;4.934;2023-03-01T09:45:05;16.90;;;12.63;;
15833;SDS011;8017;50.812;4.934;2023-03-01T09:48:14;16.40;;;12.47;;
15833;SDS011;8017;50.812;4.934;2023-03-01T09:51:22;16.87;;;12.57;;
15833;SDS011;8017;50.812;4.934;2023-03-01T09:54:28;15.17;;;12.93;;
15833;SDS011;8017;50.812;4.934;2023-03-01T09:57:30;17.47;;;12.23;;
15833;SDS011;8017;50.812;4.934;2023-03-01T10:00:39;18.03;;;12.27;;
15833;SDS011;8017;50.812;4.934;2023-03-01T10:03:44;14.40;;;12.03;;
15833;SDS011;8017;50.812;4.934;2023-03-01T10:07:17;17.00;;;12.20;;
15833;SDS011;8017;50.812;4.934;2023-03-01T10:10:28;19.17;;;13.20;;
15833;SDS011;8017;50.812;4.934;2023-03-01T10:13:37;17.43;;;12.37;;
15833;SDS011;8017;50.812;4.934;2023-03-01T10:16:50;16.77;;;13.13;;
15833;SDS011;8017;50.812;4.934;2023-03-01T10:19:58;13.93;;;11.40;;
15833;SDS011;8017;50.812;4.934;2023-03-01T10:23:20;17.03;;;12.70;;
15833;SDS011;8017;50.812;4.934;2023-03-01T10:26:27;17.73;;;13.00;;
15833;SDS011;8017;50.812;4.934;2023-03-01T10:29:40;18.67;;;12.77;;
15833;SDS011;8017;50.812;4.934;2023-03-01T10:32:50;17.73;;;12.60;;
15833;SDS011;8017;50.812;4.934;2023-03-01T10:35:54;15.57;;;11.60;;
15833;SDS011;8017;50.812;4.934;2023-03-01T10:38:57;17.20;;;12.90;;
15833;SDS011;8017;50.812;4.934;2023-03-01T10:42:00;15.90;;;12.20;;
15833;SDS011;8017;50.812;4.934;2023-03-01T10:45:14;16.13;;;12.53;;
15833;SDS011;8017;50.812;4.934;2023-03-01T10:48:19;15.07;;;12.50;;
15833;SDS011;8017;50.812;4.934;2023-03-01T10:51:23;14.63;;;12.63;;
15833;SDS011;8017;50.812;4.934;2023-03-01T10:54:28;15.77;;;12.50;;
15833;SDS011;8017;50.812;4.934;2023-03-01T10:57:36;15.27;;;11.83;;
15833;SDS011;8017;50.812;4.934;2023-03-01T11:00:46;18.37;;;12.90;;
15833;SDS011;8017;50.812;4.934;2023-03-01T11:04:02;18.03;;;12.20;;
15833;SDS011;8017;50.812;4.934;2023-03-01T11:07:11;14.47;;;11.83;;
15833;SDS011;8017;50.812;4.934;2023-03-01T11:10:16;16.70;;;11.87;;
15833;SDS011;8017;50.812;4.934;2023-03-01T11:13:19;14.43;;;11.73;;
15833;SDS011;8017;50.812;4.934;2023-03-01T11:16:26;15.60;;;11.87;;
15833;SDS011;8017;50.812;4.934;2023-03-01T11:19:35;14.40;;;11.10;;
15833;SDS011;8017;50.812;4.934;2023-03-01T11:22:37;15.17;;;12.00;;
15833;SDS011;8017;50.812;4.934;2023-03-01T11:25:48;17.57;;;12.20;;
15833;SDS011;8017;50.812;4.934;2023-03-01T11:28:56;15.97;;;12.03;;
15833;SDS011;8017;50.812;4.934;2023-03-01T11:32:05;15.53;;;11.93;;
15833;SDS011;8017;50.812;4.934;2023-03-01T11:35:10;16.80;;;12.07;;
15833;SDS011;8017;50.812;4.934;2023-03-01T11:38:20;16.17;;;12.10;;
15833;SDS011;8017;50.812;4.934;2023-03-01T11:41:25;13.73;;;12.23;;
15833;SDS011;8017;50.812;4.934;2023-03-01T11:44:29;13.73;;;12.13;;
15833;SDS011;8017;50.812;4.934;2023-03-01T11:47:42;14.63;;;11.40;;
15833;SDS011;8017;50.812;4.934;2023-03-01T11:51:02;22.87;;;13.40;;
15833;SDS011;8017;50.812;4.934;2023-03-01T11:54:13;15.67;;;12.27;;
15833;SDS011;8017;50.812;4.934;2023-03-01T11:57:31;13.60;;;11.27;;
15833;SDS011;8017;50.812;4.934;2023-03-01T12:00:58;13.83;;;11.60;;
15833;SDS011;8017;50.812;4.934;2023-03-01T12:07:45;16.57;;;12.97;;
15833;SDS011;8017;50.812;4.934;2023-03-01T12:10:52;17.57;;;12.50;;
15833;SDS011;8017;50.812;4.934;2023-03-01T12:14:12;17.10;;;12.20;;
15833;SDS011;8017;50.812;4.934;2023-03-01T12:17:26;15.27;;;11.33;;
15833;SDS011;8017;50.812;4.934;2023-03-01T12:20:44;15.03;;;11.63;;
15833;SDS011;8017;50.812;4.934;2023-03-01T12:24:00;15.53;;;12.23;;
15833;SDS011;8017;50.812;4.934;2023-03-01T12:27:26;19.10;;;12.17;;
15833;SDS011;8017;50.812;4.934;2023-03-01T12:30:48;15.03;;;11.63;;
15833;SDS011;8017;50.812;4.934;2023-03-01T12:34:03;15.43;;;11.87;;
15833;SDS011;8017;50.812;4.934;2023-03-01T12:37:21;15.13;;;13.53;;
15833;SDS011;8017;50.812;4.934;2023-03-01T12:40:33;16.57;;;13.47;;
15833;SDS011;8017;50.812;4.934;2023-03-01T12:43:48;18.33;;;13.93;;
15833;SDS011;8017;50.812;4.934;2023-03-01T12:47:07;23.57;;;15.83;;
15833;SDS011;8017;50.812;4.934;2023-03-01T12:50:17;20.80;;;16.57;;
15833;SDS011;8017;50.812;4.934;2023-03-01T12:53:23;22.77;;;17.03;;
15833;SDS011;8017;50.812;4.934;2023-03-01T12:56:28;19.30;;;16.30;;
15833;SDS011;8017;50.812;4.934;2023-03-01T12:59:34;21.77;;;17.57;;
15833;SDS011;8017;50.812;4.934;2023-03-01T13:02:45;22.10;;;16.47;;
15833;SDS011;8017;50.812;4.934;2023-03-01T13:05:56;19.87;;;15.33;;
15833;SDS011;8017;50.812;4.934;2023-03-01T13:09:11;25.90;;;16.17;;
15833;SDS011;8017;50.812;4.934;2023-03-01T13:19:41;15.50;;;13.40;;
15833;SDS011;8017;50.812;4.934;2023-03-01T13:23:02;13.63;;;10.90;;
15833;SDS011;8017;50.812;4.934;2023-03-01T13:26:08;14.73;;;10.50;;
15833;SDS011;8017;50.812;4.934;2023-03-01T13:29:25;13.67;;;10.90;;
15833;SDS011;8017;50.812;4.934;2023-03-01T13:32:29;12.33;;;10.17;;
15833;SDS011;8017;50.812;4.934;2023-03-01T13:35:43;14.13;;;9.70;;
15833;SDS011;8017;50.812;4.934;2023-03-01T13:38:46;15.47;;;10.27;;
15833;SDS011;8017;50.812;4.934;2023-03-01T13:41:49;13.00;;;10.30;;
15833;SDS011;8017;50.812;4.934;2023-03-01T13:44:52;14.63;;;10.00;;
15833;SDS011;8017;50.812;4.934;2023-03-01T13:47:55;15.70;;;10.10;;
15833;SDS011;8017;50.812;4.934;2023-03-01T13:51:02;11.57;;;10.17;;
15833;SDS011;8017;50.812;4.934;2023-03-01T13:54:09;13.43;;;9.73;;
15833;SDS011;8017;50.812;4.934;2023-03-01T13:57:17;13.33;;;10.03;;
15833;SDS011;8017;50.812;4.934;2023-03-01T14:00:27;10.70;;;8.93;;
15833;SDS011;8017;50.812;4.934;2023-03-01T14:03:40;11.90;;;9.50;;
15833;SDS011;8017;50.812;4.934;2023-03-01T14:06:44;10.70;;;9.33;;
15833;SDS011;8017;50.812;4.934;2023-03-01T14:09:46;13.80;;;9.53;;
15833;SDS011;8017;50.812;4.934;2023-03-01T14:12:52;12.77;;;10.07;;
15833;SDS011;8017;50.812;4.934;2023-03-01T14:16:05;11.37;;;9.57;;
15833;SDS011;8017;50.812;4.934;2023-03-01T14:19:20;17.10;;;10.63;;
15833;SDS011;8017;50.812;4.934;2023-03-01T14:22:27;14.00;;;10.53;;
15833;SDS011;8017;50.812;4.934;2023-03-01T14:25:33;16.40;;;10.30;;
15833;SDS011;8017;50.812;4.934;2023-03-01T14:28:37;14.50;;;10.30;;
15833;SDS011;8017;50.812;4.934;2023-03-01T14:31:40;15.20;;;9.97;;
15833;SDS011;8017;50.812;4.934;2023-03-01T14:34:43;14.57;;;9.80;;
15833;SDS011;8017;50.812;4.934;2023-03-01T14:37:47;14.67;;;9.87;;
15833;SDS011;8017;50.812;4.934;2023-03-01T14:40:50;17.57;;;10.60;;
15833;SDS011;8017;50.812;4.934;2023-03-01T14:43:58;14.27;;;10.30;;
15833;SDS011;8017;50.812;4.934;2023-03-01T14:47:02;14.17;;;10.17;;
15833;SDS011;8017;50.812;4.934;2023-03-01T14:50:07;12.67;;;9.50;;
15833;SDS011;8017;50.812;4.934;2023-03-01T14:53:15;12.30;;;10.20;;
15833;SDS011;8017;50.812;4.934;2023-03-01T14:56:19;13.13;;;10.43;;
15833;SDS011;8017;50.812;4.934;2023-03-01T14:59:22;19.10;;;11.70;;
15833;SDS011;8017;50.812;4.934;2023-03-01T15:02:25;13.50;;;10.03;;
15833;SDS011;8017;50.812;4.934;2023-03-01T15:05:29;12.10;;;9.47;;
15833;SDS011;8017;50.812;4.934;2023-03-01T15:08:35;12.90;;;9.97;;
15833;SDS011;8017;50.812;4.934;2023-03-01T15:11:42;12.60;;;10.27;;
15833;SDS011;8017;50.812;4.934;2023-03-01T15:14:44;11.47;;;9.13;;
15833;SDS011;8017;50.812;4.934;2023-03-01T15:17:50;12.13;;;10.03;;
15833;SDS011;8017;50.812;4.934;2023-03-01T15:20:56;15.63;;;10.93;;
15833;SDS011;8017;50.812;4.934;2023-03-01T15:24:16;13.80;;;10.33;;
15833;SDS011;8017;50.812;4.934;2023-03-01T15:27:24;12.67;;;8.83;;
15833;SDS011;8017;50.812;4.934;2023-03-01T15:30:27;13.97;;;9.87;;
15833;SDS011;8017;50.812;4.934;2023-03-01T15:33:36;14.43;;;9.77;;
15833;SDS011;8017;50.812;4.934;2023-03-01T15:36:41;11.87;;;9.03;;
15833;SDS011;8017;50.812;4.934;2023-03-01T15:39:54;14.30;;;9.47;;
15833;SDS011;8017;50.812;4.934;2023-03-01T15:42:57;10.63;;;9.00;;
15833;SDS011;8017;50.812;4.934;2023-03-01T15:45:59;10.60;;;8.53;;
15833;SDS011;8017;50.812;4.934;2023-03-01T15:49:02;9.90;;;8.07;;
15833;SDS011;8017;50.812;4.934;2023-03-01T15:52:09;10.10;;;8.57;;
15833;SDS011;8017;50.812;4.934;2023-03-01T15:55:17;13.00;;;8.93;;
15833;SDS011;8017;50.812;4.934;2023-03-01T15:58:21;11.70;;;9.13;;
15833;SDS011;8017;50.812;4.934;2023-03-01T16:01:24;9.83;;;7.90;;
15833;SDS011;8017;50.812;4.934;2023-03-01T16:04:27;11.03;;;7.87;;
15833;SDS011;8017;50.812;4.934;2023-03-01T16:07:28;9.83;;;8.10;;
15833;SDS011;8017;50.812;4.934;2023-03-01T16:10:32;12.03;;;8.53;;
15833;SDS011;8017;50.812;4.934;2023-03-01T16:13:35;9.63;;;7.87;;
15833;SDS011;8017;50.812;4.934;2023-03-01T16:16:37;12.40;;;8.27;;
15833;SDS011;8017;50.812;4.934;2023-03-01T16:19:39;13.63;;;8.13;;
15833;SDS011;8017;50.812;4.934;2023-03-01T16:22:41;11.97;;;8.07;;
15833;SDS011;8017;50.812;4.934;2023-03-01T16:25:45;9.20;;;7.40;;
15833;SDS011;8017;50.812;4.934;2023-03-01T16:28:47;13.07;;;8.30;;
15833;SDS011;8017;50.812;4.934;2023-03-01T16:31:49;9.13;;;7.60;;
15833;SDS011;8017;50.812;4.934;2023-03-01T16:34:51;10.93;;;7.70;;
15833;SDS011;8017;50.812;4.934;2023-03-01T16:37:53;12.63;;;8.27;;
15833;SDS011;8017;50.812;4.934;2023-03-01T16:40:56;11.33;;;8.07;;
15833;SDS011;8017;50.812;4.934;2023-03-01T16:43:58;11.87;;;7.83;;
15833;SDS011;8017;50.812;4.934;2023-03-01T16:47:00;10.73;;;8.07;;
15833;SDS011;8017;50.812;4.934;2023-03-01T16:50:02;12.37;;;8.43;;
15833;SDS011;8017;50.812;4.934;2023-03-01T16:53:04;12.47;;;7.80;;
15833;SDS011;8017;50.812;4.934;2023-03-01T16:56:08;9.47;;;7.73;;
15833;SDS011;8017;50.812;4.934;2023-03-01T16:59:11;9.13;;;7.83;;
15833;SDS011;8017;50.812;4.934;2023-03-01T17:02:14;11.97;;;7.77;;
15833;SDS011;8017;50.812;4.934;2023-03-01T17:05:19;10.87;;;7.70;;
15833;SDS011;8017;50.812;4.934;2023-03-01T17:08:23;9.60;;;7.50;;
15833;SDS011;8017;50.812;4.934;2023-03-01T17:11:27;13.83;;;7.47;;
15833;SDS011;8017;50.812;4.934;2023-03-01T17:14:29;9.97;;;7.47;;
15833;SDS011;8017;50.812;4.934;2023-03-01T17:17:31;21.23;;;7.97;;
15833;SDS011;8017;50.812;4.934;2023-03-01T17:20:34;10.07;;;7.80;;
15833;SDS011;8017;50.812;4.934;2023-03-01T17:23:37;11.43;;;7.50;;
15833;SDS011;8017;50.812;4.934;2023-03-01T17:26:43;10.67;;;7.70;;
15833;SDS011;8017;50.812;4.934;2023-03-01T17:29:45;12.40;;;7.90;;
15833;SDS011;8017;50.812;4.934;2023-03-01T17:32:47;13.07;;;7.50;;
15833;SDS011;8017;50.812;4.934;2023-03-01T17:35:49;10.30;;;7.37;;
15833;SDS011;8017;50.812;4.934;2023-03-01T17:38:51;9.73;;;7.77;;
15833;SDS011;8017;50.812;4.934;2023-03-01T17:41:54;12.13;;;7.90;;
15833;SDS011;8017;50.812;4.934;2023-03-01T17:44:57;12.53;;;7.73;;
15833;SDS011;8017;50.812;4.934;2023-03-01T17:47:59;8.83;;;7.43;;
15833;SDS011;8017;50.812;4.934;2023-03-01T17:51:04;10.20;;;7.47;;
15833;SDS011;8017;50.812;4.934;2023-03-01T17:54:07;13.40;;;7.93;;
15833;SDS011;8017;50.812;4.934;2023-03-01T17:57:10;11.50;;;8.30;;
15833;SDS011;8017;50.812;4.934;2023-03-01T18:00:13;8.43;;;6.73;;
15833;SDS011;8017;50.812;4.934;2023-03-01T18:03:16;8.67;;;7.17;;
15833;SDS011;8017;50.812;4.934;2023-03-01T18:06:21;11.03;;;7.73;;
15833;SDS011;8017;50.812;4.934;2023-03-01T18:09:25;11.33;;;8.30;;
15833;SDS011;8017;50.812;4.934;2023-03-01T18:12:30;10.97;;;9.07;;
15833;SDS011;8017;50.812;4.934;2023-03-01T18:15:32;13.50;;;8.90;;
15833;SDS011;8017;50.812;4.934;2023-03-01T18:18:35;12.90;;;7.60;;
15833;SDS011;8017;50.812;4.934;2023-03-01T18:21:37;12.80;;;9.00;;
15833;SDS011;8017;50.812;4.934;2023-03-01T18:24:39;11.63;;;9.03;;
15833;SDS011;8017;50.812;4.934;2023-03-01T18:27:43;12.87;;;8.40;;
15833;SDS011;8017;50.812;4.934;2023-03-01T18:30:45;12.93;;;9.40;;
15833;SDS011;8017;50.812;4.934;2023-03-01T18:33:47;11.17;;;8.57;;
15833;SDS011;8017;50.812;4.934;2023-03-01T18:36:50;12.80;;;9.10;;